Time;durP1;ratioP1;P1;durP2;ratioP2;P2;SDS_P1;SDS_P2;PMS_P1;PMS_P2;Temp;Humidity;BMP_temperature;BMP_pressure;BME280_temperature;BME280_humidity;BME280_pressure;Samples;Min_cycle;Max_cycle;Signal;HPM_P1;HPM_P2
2021/12/10 00:01:39;;;;;;;43.53;30.02;;;5.10;99.90;;;;;;5021098;28;20119;-80
2021/12/10 00:04:08;;;;;;;42.85;30.08;;;5.20;99.90;;;;;;5021374;28;20062;-79
2021/12/10 00:06:40;;;;;;;39.08;26.50;;;5.10;99.90;;;;;;5021010;28;20101;-78
2021/12/10 00:09:12;;;;;;;40.75;29.05;;;5.20;99.90;;;;;;5022388;28;20042;-79
2021/12/10 00:11:43;;;;;;;38.80;28.15;;;5.10;99.90;;;;;;5021401;28;20050;-77
2021/12/10 00:14:11;;;;;;;37.88;28.23;;;5.20;99.90;;;;;;5021413;28;20038;-78
2021/12/10 00:16:41;;;;;;;39.20;28.52;;;5.20;99.90;;;;;;5021041;28;20076;-79
2021/12/10 00:19:25;;;;;;;39.80;28.98;;;5.20;36.20;;;;;;5022990;28;20045;-79
2021/12/10 00:21:55;;;;;;;38.03;26.40;;;5.10;71.30;;;;;;5021201;28;20073;-78
2021/12/10 00:24:26;;;;;;;37.75;26.83;;;5.20;1.00;;;;;;5021665;28;20061;-79
2021/12/10 00:26:54;;;;;;;38.30;26.45;;;5.20;1.00;;;;;;5021268;28;20101;-79
2021/12/10 00:29:21;;;;;;;35.85;25.67;;;5.10;1.00;;;;;;5020468;28;20499;-78
2021/12/10 00:31:52;;;;;;;36.67;26.25;;;5.10;1.00;;;;;;5021231;28;20042;-79
2021/12/10 00:34:25;;;;;;;35.58;25.15;;;5.10;1.00;;;;;;5021277;28;20508;-79
2021/12/10 00:36:58;;;;;;;35.08;25.80;;;5.10;1.00;;;;;;5019765;28;20049;-80
2021/12/10 00:39:28;;;;;;;37.33;25.45;;;5.10;1.00;;;;;;5019768;28;20052;-78
2021/12/10 00:41:58;;;;;;;33.78;23.08;;;5.10;1.00;;;;;;5019801;28;20053;-78
2021/12/10 00:44:25;;;;;;;34.30;25.05;;;5.10;1.00;;;;;;5025261;28;20038;-78
2021/12/10 00:46:53;;;;;;;33.10;22.92;;;5.10;1.00;;;;;;5030886;28;20060;-79
2021/12/10 00:49:21;;;;;;;33.10;23.15;;;5.10;1.00;;;;;;5035086;28;20105;-79
2021/12/10 00:51:50;;;;;;;29.48;23.05;;;5.10;1.00;;;;;;5032792;28;20048;-78
2021/12/10 00:54:20;;;;;;;33.40;23.50;;;5.10;1.00;;;;;;5011170;28;20053;-78
2021/12/10 00:56:47;;;;;;;30.38;22.55;;;5.10;1.00;;;;;;5012282;28;20509;-77
2021/12/10 00:59:17;;;;;;;31.95;23.52;;;5.10;1.00;;;;;;5032461;28;20054;-79
2021/12/10 01:01:45;;;;;;;34.35;23.42;;;5.20;1.00;;;;;;5033322;28;20025;-79
2021/12/10 01:04:16;;;;;;;31.23;22.27;;;5.20;1.00;;;;;;5033961;28;20044;-78
2021/12/10 01:06:47;;;;;;;32.42;22.35;;;5.10;1.00;;;;;;5030771;28;20151;-78
2021/12/10 01:09:19;;;;;;;33.50;24.27;;;5.20;1.00;;;;;;5011457;28;20145;-79
2021/12/10 01:11:51;;;;;;;37.08;27.13;;;5.20;1.00;;;;;;5004083;28;20054;-79
2021/12/10 01:14:35;;;;;;;35.20;24.42;;;5.20;1.00;;;;;;5030348;28;20077;-79
2021/12/10 01:25:35;;;;;;;40.03;27.42;;;5.20;37.60;;;;;;5002960;28;20119;-80
2021/12/10 01:28:04;;;;;;;38.25;27.25;;;5.00;99.90;;;;;;5019495;28;20050;-80
2021/12/10 01:30:34;;;;;;;41.45;28.80;;;5.00;99.90;;;;;;5019952;28;20062;-81
2021/12/10 01:33:05;;;;;;;41.45;29.30;;;4.90;1.00;;;;;;5020069;28;20042;-80
2021/12/10 01:35:36;;;;;;;41.05;30.23;;;4.80;1.00;;;;;;5002188;28;20048;-79
2021/12/10 01:38:06;;;;;;;45.28;31.60;;;4.80;1.00;;;;;;5019655;28;20046;-79
2021/12/10 01:40:36;;;;;;;45.72;30.73;;;4.70;1.00;;;;;;5019614;28;20046;-79
2021/12/10 01:43:07;;;;;;;47.72;32.20;;;4.70;99.90;;;;;;5020547;28;20054;-79
2021/12/10 01:45:44;;;;;;;42.65;30.52;;;4.60;99.90;;;;;;5023060;28;20042;-78
2021/12/10 01:48:16;;;;;;;46.58;33.08;;;4.50;99.90;;;;;;5020373;28;20050;-80
2021/12/10 01:50:43;;;;;;;47.03;32.75;;;4.50;1.00;;;;;;5021165;28;20053;-79
2021/12/10 01:53:14;;;;;;;48.65;32.85;;;4.50;1.00;;;;;;5020029;28;20046;-78
2021/12/10 01:55:47;;;;;;;50.40;34.15;;;4.60;99.90;;;;;;4983388;28;20064;-79
2021/12/10 01:58:18;;;;;;;49.63;33.35;;;4.50;1.00;;;;;;4986976;28;20046;-78
2021/12/10 02:00:48;;;;;;;47.00;34.17;;;4.60;99.90;;;;;;4995132;28;20050;-78
2021/12/10 02:03:16;;;;;;;47.55;33.50;;;4.70;86.80;;;;;;5014449;28;20054;-79
2021/12/10 02:05:43;;;;;;;47.60;33.33;;;4.70;1.00;;;;;;5033804;28;20476;-78
2021/12/10 02:08:11;;;;;;;45.20;31.20;;;4.60;1.00;;;;;;5037990;28;20050;-77
2021/12/10 02:10:39;;;;;;;46.25;31.92;;;4.70;1.00;;;;;;5032260;28;20113;-78
2021/12/10 02:13:07;;;;;;;44.72;31.08;;;4.80;1.00;;;;;;5027524;28;20042;-79
2021/12/10 02:15:35;;;;;;;44.40;30.38;;;4.80;99.90;;;;;;5020020;28;20049;-79
2021/12/10 02:18:06;;;;;;;44.78;31.25;;;4.80;99.90;;;;;;5031941;28;20076;-81
2021/12/10 02:20:36;;;;;;;43.15;30.67;;;4.90;99.90;;;;;;5029834;28;20053;-78
2021/12/10 02:23:09;;;;;;;46.65;31.20;;;5.00;99.90;;;;;;5028010;28;20400;-80
2021/12/10 02:25:37;;;;;;;45.22;32.47;;;5.00;20.90;;;;;;5005021;28;20047;-80
2021/12/10 02:28:06;;;;;;;45.35;31.38;;;5.00;1.00;;;;;;5009121;28;20061;-79
2021/12/10 02:30:39;;;;;;;47.67;33.22;;;5.00;1.00;;;;;;5011586;28;20116;-79
2021/12/10 02:33:09;;;;;;;48.20;33.13;;;4.90;1.00;;;;;;5009146;28;20050;-79
2021/12/10 02:35:37;;;;;;;48.70;32.22;;;5.00;48.90;;;;;;5023773;28;20050;-79
2021/12/10 02:38:08;;;;;;;48.80;34.40;;;5.00;99.90;;;;;;5023156;28;20048;-80
2021/12/10 02:40:37;;;;;;;47.25;32.42;;;5.00;73.90;;;;;;5023947;28;20053;-80
2021/12/10 02:43:09;;;;;;;49.33;34.80;;;4.90;53.00;;;;;;5024157;28;20502;-81
2021/12/10 02:45:37;;;;;;;47.90;32.45;;;4.90;99.90;;;;;;5004993;28;20517;-78
2021/12/10 02:48:05;;;;;;;50.08;33.53;;;4.80;99.90;;;;;;5023166;28;20042;-80
2021/12/10 02:50:34;;;;;;;45.85;33.20;;;4.80;99.90;;;;;;5016866;28;20144;-79
2021/12/10 02:53:02;;;;;;;46.20;33.15;;;4.70;1.00;;;;;;5023482;28;20049;-80
2021/12/10 02:55:32;;;;;;;47.55;32.83;;;4.80;1.00;;;;;;5022949;28;20049;-79
2021/12/10 02:58:05;;;;;;;47.60;32.92;;;4.80;1.00;;;;;;5023838;28;20073;-79
2021/12/10 03:00:38;;;;;;;46.17;31.85;;;4.80;1.00;;;;;;5026348;28;20425;-80
2021/12/10 03:03:05;;;;;;;47.10;32.67;;;4.70;1.00;;;;;;5026300;28;20054;-79
2021/12/10 03:05:33;;;;;;;47.55;32.40;;;4.60;1.00;;;;;;5029749;28;20049;-80
2021/12/10 03:08:01;;;;;;;45.40;32.45;;;4.60;99.90;;;;;;5030979;28;20042;-80
2021/12/10 03:10:31;;;;;;;49.63;35.17;;;4.50;99.90;;;;;;5031033;28;20065;-78
2021/12/10 03:13:00;;;;;;;50.22;34.25;;;4.50;99.90;;;;;;5030702;28;20038;-79
2021/12/10 03:15:30;;;;;;;47.10;33.28;;;4.40;99.90;;;;;;5028649;28;20062;-79
2021/12/10 03:17:59;;;;;;;48.20;33.47;;;4.40;1.00;;;;;;5008143;28;20089;-80
2021/12/10 03:20:30;;;;;;;46.65;32.63;;;4.40;1.00;;;;;;5020954;28;20046;-79
2021/12/10 03:22:58;;;;;;;44.75;32.42;;;4.50;1.00;;;;;;5023658;28;20069;-80
2021/12/10 03:25:26;;;;;;;46.28;32.85;;;4.50;1.00;;;;;;5022346;28;20054;-80
2021/12/10 03:27:55;;;;;;;48.03;33.75;;;4.50;1.00;;;;;;5023073;28;20053;-81
2021/12/10 03:30:26;;;;;;;51.83;33.65;;;4.60;1.00;;;;;;5029197;28;20062;-79
2021/12/10 03:32:54;;;;;;;48.50;34.88;;;4.60;1.00;;;;;;5034998;28;20041;-77
2021/12/10 03:35:26;;;;;;;48.25;33.38;;;4.60;99.90;;;;;;5034382;28;20033;-77
2021/12/10 03:37:54;;;;;;;49.35;34.50;;;4.50;37.80;;;;;;5034463;28;20049;-78
2021/12/10 03:40:21;;;;;;;50.67;34.67;;;4.60;99.90;;;;;;5033058;28;20069;-80
2021/12/10 03:42:53;;;;;;;52.17;35.42;;;4.40;1.00;;;;;;5034670;28;20041;-80
2021/12/10 03:49:17;;;;;;;48.78;32.47;;;4.40;1.00;;;;;;5040330;28;20048;-77
2021/12/10 03:51:46;;;;;;;52.30;36.00;;;4.30;1.00;;;;;;5006332;28;20067;-77
2021/12/10 03:54:16;;;;;;;53.25;35.47;;;4.20;1.00;;;;;;5020490;28;20054;-78
2021/12/10 03:56:45;;;;;;;57.10;37.40;;;4.20;1.00;;;;;;4990849;28;20050;-80
2021/12/10 03:59:15;;;;;;;56.42;37.78;;;4.30;1.00;;;;;;4985619;28;20062;-79
2021/12/10 04:01:46;;;;;;;54.53;35.92;;;4.30;1.00;;;;;;5018143;28;20102;-77
2021/12/10 04:04:17;;;;;;;56.72;37.42;;;4.30;1.00;;;;;;5002995;28;20037;-78
2021/12/10 04:06:45;;;;;;;58.88;38.85;;;4.40;1.00;;;;;;5020681;28;20045;-79
2021/12/10 04:09:13;;;;;;;58.17;38.78;;;4.40;99.90;;;;;;5022211;28;20105;-80
2021/12/10 04:11:41;;;;;;;54.08;37.22;;;4.40;99.90;;;;;;5018915;28;20120;-78
2021/12/10 04:14:09;;;;;;;60.15;38.70;;;4.30;99.90;;;;;;5020269;28;20052;-78
2021/12/10 04:16:37;;;;;;;53.00;36.97;;;4.30;99.90;;;;;;5018934;28;20077;-78
2021/12/10 04:19:09;;;;;;;61.65;41.67;;;4.30;1.00;;;;;;5019112;28;20042;-80
2021/12/10 04:21:41;;;;;;;58.17;40.22;;;4.40;1.00;;;;;;5020539;28;20104;-78
2021/12/10 04:24:14;;;;;;;56.22;38.83;;;4.40;99.90;;;;;;5004298;28;20144;-78
2021/12/10 04:26:42;;;;;;;54.90;37.67;;;4.40;99.90;;;;;;5022173;28;20105;-78
2021/12/10 04:29:09;;;;;;;56.78;37.35;;;4.50;99.90;;;;;;5029199;28;20042;-80
2021/12/10 04:31:37;;;;;;;56.88;38.92;;;4.50;85.80;;;;;;5012077;28;20176;-79
2021/12/10 04:34:05;;;;;;;54.40;38.75;;;4.60;1.00;;;;;;4999967;28;20052;-78
2021/12/10 04:36:33;;;;;;;63.95;42.53;;;4.60;1.00;;;;;;5015838;28;20038;-77
2021/12/10 04:39:02;;;;;;;55.70;37.80;;;4.60;1.00;;;;;;5017489;28;20046;-77
2021/12/10 04:41:29;;;;;;;51.78;37.15;;;4.60;99.90;;;;;;5015931;28;20405;-78
2021/12/10 04:43:57;;;;;;;55.45;37.47;;;4.60;99.90;;;;;;5016137;28;20038;-77
2021/12/10 04:46:24;;;;;;;51.08;35.78;;;4.50;1.00;;;;;;5020170;28;20049;-80
2021/12/10 04:48:57;;;;;;;49.97;35.08;;;4.50;1.00;;;;;;5023138;28;20057;-79
2021/12/10 04:51:28;;;;;;;48.55;34.05;;;4.50;99.90;;;;;;5026946;28;20070;-78
2021/12/10 04:53:57;;;;;;;49.00;33.83;;;4.50;1.00;;;;;;4999024;28;20098;-78
2021/12/10 04:56:27;;;;;;;51.55;36.17;;;4.50;99.90;;;;;;5016276;28;20053;-78
2021/12/10 04:58:55;;;;;;;55.33;38.78;;;4.60;99.90;;;;;;5028900;28;20030;-79
2021/12/10 05:01:23;;;;;;;56.30;38.42;;;4.60;99.90;;;;;;5018007;28;20053;-78
2021/12/10 05:03:51;;;;;;;64.75;42.10;;;4.60;99.90;;;;;;5036937;28;20037;-79
2021/12/10 05:06:18;;;;;;;68.22;44.30;;;4.60;17.10;;;;;;5010615;28;20505;-79
2021/12/10 05:08:46;;;;;;;67.28;45.72;;;4.50;15.10;;;;;;5023154;28;20124;-79
2021/12/10 05:11:14;;;;;;;70.15;46.55;;;4.40;47.00;;;;;;5003210;28;20045;-79
2021/12/10 05:13:45;;;;;;;72.18;46.50;;;4.50;99.90;;;;;;5003152;28;20073;-80
2021/12/10 05:16:14;;;;;;;70.00;48.15;;;4.50;99.90;;;;;;5004905;28;20063;-77
2021/12/10 05:18:46;;;;;;;73.55;48.55;;;4.50;99.90;;;;;;5022844;28;20045;-79
2021/12/10 05:21:14;;;;;;;77.45;50.42;;;4.50;99.90;;;;;;5023062;28;20042;-80
2021/12/10 05:23:42;;;;;;;75.25;50.38;;;4.50;1.00;;;;;;5023900;28;20034;-79
2021/12/10 05:26:10;;;;;;;76.43;49.60;;;4.50;1.00;;;;;;5032621;28;20017;-79
2021/12/10 05:28:37;;;;;;;70.47;47.08;;;4.50;65.90;;;;;;5034617;28;20053;-78
2021/12/10 05:31:06;;;;;;;84.22;53.65;;;4.50;25.30;;;;;;5019147;28;20137;-79
2021/12/10 05:33:34;;;;;;;82.47;57.58;;;4.50;82.60;;;;;;5022633;28;20048;-79
2021/12/10 05:36:04;;;;;;;80.10;55.83;;;4.50;29.40;;;;;;5022470;28;20073;-77
2021/12/10 05:38:32;;;;;;;80.25;55.15;;;4.50;13.50;;;;;;5023148;28;20076;-78
2021/12/10 05:41:05;;;;;;;67.53;47.38;;;4.50;1.00;;;;;;5022328;28;20045;-78
2021/12/10 05:43:32;;;;;;;65.97;44.20;;;4.50;1.00;;;;;;5003627;28;20061;-78
2021/12/10 05:46:00;;;;;;;59.88;41.40;;;4.60;1.00;;;;;;5003193;28;20056;-79
2021/12/10 05:48:30;;;;;;;60.55;39.47;;;4.60;1.00;;;;;;5004867;28;20151;-79
2021/12/10 05:50:58;;;;;;;53.70;37.67;;;4.60;1.00;;;;;;5022392;28;20046;-79
2021/12/10 05:53:25;;;;;;;56.20;38.38;;;4.50;1.00;;;;;;5004303;28;20093;-79
2021/12/10 05:55:53;;;;;;;53.58;37.53;;;4.50;1.00;;;;;;5025122;28;20046;-80
2021/12/10 05:58:22;;;;;;;52.13;36.38;;;4.50;1.00;;;;;;5016273;28;20053;-79
2021/12/10 06:00:53;;;;;;;53.53;36.13;;;4.60;1.00;;;;;;5034973;28;20058;-81
2021/12/10 06:03:23;;;;;;;52.85;37.78;;;4.60;1.00;;;;;;5034730;28;20037;-78
2021/12/10 06:05:51;;;;;;;54.60;36.08;;;4.60;1.00;;;;;;5036329;28;20045;-77
2021/12/10 06:08:19;;;;;;;53.95;37.00;;;4.70;1.00;;;;;;5037422;28;20132;-79
2021/12/10 06:10:48;;;;;;;56.00;37.58;;;4.70;1.00;;;;;;5035317;28;20096;-80
2021/12/10 06:13:16;;;;;;;56.42;39.15;;;4.70;1.00;;;;;;5031587;28;20072;-80
2021/12/10 06:15:44;;;;;;;58.78;39.42;;;4.80;1.00;;;;;;5011952;28;20121;-78
2021/12/10 06:18:12;;;;;;;57.15;39.28;;;4.80;1.00;;;;;;5015513;28;20034;-79
2021/12/10 06:20:43;;;;;;;60.20;40.53;;;4.90;99.90;;;;;;5010806;28;20066;-79
2021/12/10 06:23:13;;;;;;;59.90;40.83;;;4.80;99.90;;;;;;5003124;28;20038;-78
2021/12/10 06:25:41;;;;;;;60.78;42.88;;;4.80;99.90;;;;;;5004145;28;20080;-79
2021/12/10 06:28:09;;;;;;;73.78;48.38;;;4.80;99.90;;;;;;5003129;28;20062;-79
2021/12/10 06:30:38;;;;;;;75.38;49.25;;;4.80;99.90;;;;;;5003537;28;20119;-79
2021/12/10 06:33:09;;;;;;;68.95;46.08;;;4.80;99.90;;;;;;5008856;28;20483;-80
2021/12/10 06:35:38;;;;;;;70.85;46.83;;;4.60;99.90;;;;;;5013303;28;20062;-77
2021/12/10 06:38:06;;;;;;;70.80;49.22;;;4.70;1.00;;;;;;5008767;28;20046;-77
2021/12/10 06:40:37;;;;;;;73.93;49.88;;;4.70;1.00;;;;;;5000014;28;20074;-78
2021/12/10 06:43:05;;;;;;;79.60;53.08;;;4.80;1.00;;;;;;5000850;28;20510;-77
2021/12/10 06:45:35;;;;;;;71.05;47.03;;;4.80;1.00;;;;;;5001770;28;20053;-79
2021/12/10 06:48:05;;;;;;;74.50;48.40;;;4.80;1.00;;;;;;5001463;28;20050;-78
2021/12/10 06:50:36;;;;;;;73.45;49.28;;;4.70;1.00;;;;;;4997279;28;20054;-78
2021/12/10 06:53:04;;;;;;;67.72;45.00;;;4.80;1.00;;;;;;5000878;28;20061;-77
2021/12/10 06:55:34;;;;;;;70.68;49.75;;;4.80;1.00;;;;;;4999580;28;20402;-77
2021/12/10 06:58:02;;;;;;;71.40;47.58;;;4.80;1.00;;;;;;5000575;28;20375;-77
2021/12/10 07:00:33;;;;;;;77.05;52.15;;;4.80;1.00;;;;;;5001400;28;20161;-77
2021/12/10 07:03:01;;;;;;;84.78;55.72;;;4.80;1.00;;;;;;5005436;28;20053;-77
2021/12/10 07:05:28;;;;;;;98.57;64.10;;;4.80;1.00;;;;;;5002645;28;20039;-78
2021/12/10 07:07:56;;;;;;;89.40;60.92;;;4.80;1.00;;;;;;5000572;28;20042;-78
2021/12/10 07:10:23;;;;;;;113.15;71.07;;;4.70;1.00;;;;;;5005208;28;20046;-78
2021/12/10 07:12:52;;;;;;;106.22;66.10;;;4.70;1.00;;;;;;5003440;28;20057;-78
2021/12/10 07:15:20;;;;;;;82.70;54.03;;;4.70;1.00;;;;;;5003850;28;20046;-78
2021/12/10 07:17:51;;;;;;;80.07;50.90;;;4.80;1.00;;;;;;5038332;28;20080;-77
2021/12/10 07:20:24;;;;;;;70.32;47.03;;;4.80;1.00;;;;;;5015123;28;20096;-77
2021/12/10 07:22:52;;;;;;;70.47;47.70;;;4.90;1.00;;;;;;5016508;28;20042;-78
2021/12/10 07:25:21;;;;;;;69.53;45.92;;;4.90;99.90;;;;;;5027606;28;20049;-79
2021/12/10 07:27:48;;;;;;;68.10;45.58;;;5.00;99.90;;;;;;5028589;28;20125;-79
2021/12/10 07:30:19;;;;;;;85.97;57.85;;;5.10;99.90;;;;;;5025733;28;20085;-80
2021/12/10 07:32:47;;;;;;;84.88;55.42;;;5.10;92.00;;;;;;5021548;28;20049;-78
2021/12/10 07:35:15;;;;;;;85.78;58.33;;;5.10;99.90;;;;;;5014730;28;20045;-78
2021/12/10 07:37:44;;;;;;;98.22;63.80;;;5.10;1.00;;;;;;5022349;28;20054;-79
2021/12/10 07:40:15;;;;;;;111.72;74.05;;;5.10;51.30;;;;;;5021315;28;20038;-78
2021/12/10 07:42:43;;;;;;;98.75;63.72;;;5.10;1.00;;;;;;5020265;28;20140;-78
2021/12/10 07:45:12;;;;;;;91.28;58.78;;;4.90;95.80;;;;;;5019196;28;20421;-78
2021/12/10 07:47:41;;;;;;;90.70;58.33;;;4.90;1.00;;;;;;5017029;28;20045;-77
2021/12/10 07:50:11;;;;;;;88.90;57.50;;;4.90;1.00;;;;;;5029638;28;20042;-78
2021/12/10 07:52:40;;;;;;;83.65;57.10;;;4.90;1.00;;;;;;5020324;28;20038;-78
2021/12/10 07:55:12;;;;;;;85.03;56.72;;;5.00;1.00;;;;;;5022943;28;20045;-77
2021/12/10 07:57:39;;;;;;;79.30;53.08;;;4.90;1.00;;;;;;5036835;28;20112;-78
2021/12/10 08:00:09;;;;;;;81.65;54.03;;;5.00;1.00;;;;;;5038356;28;20061;-78
2021/12/10 08:02:43;;;;;;;81.63;53.35;;;5.10;1.00;;;;;;5022844;28;20080;-79
2021/12/10 08:05:13;;;;;;;84.05;56.95;;;5.20;1.00;;;;;;5016751;28;20040;-77
2021/12/10 08:07:40;;;;;;;83.75;55.03;;;5.30;1.00;;;;;;5005440;28;20482;-77
2021/12/10 08:10:10;;;;;;;86.85;55.25;;;5.30;1.00;;;;;;5016560;28;20412;-77
2021/12/10 08:12:37;;;;;;;83.28;55.78;;;5.30;1.00;;;;;;4998866;28;20501;-77
2021/12/10 08:15:07;;;;;;;82.53;54.33;;;5.20;35.80;;;;;;5004294;28;20507;-78
2021/12/10 08:17:35;;;;;;;84.05;57.35;;;5.10;99.90;;;;;;5021396;28;20460;-77
2021/12/10 08:20:05;;;;;;;85.43;55.08;;;5.10;99.90;;;;;;5025895;28;20042;-81
2021/12/10 08:22:33;;;;;;;84.95;57.20;;;5.10;99.90;;;;;;5003442;28;20053;-78
2021/12/10 08:25:01;;;;;;;83.07;55.42;;;5.30;99.90;;;;;;5008936;28;20065;-78
2021/12/10 08:27:28;;;;;;;99.55;64.40;;;5.40;1.00;;;;;;5018732;28;20528;-78
2021/12/10 08:30:02;;;;;;;88.32;57.30;;;5.50;1.00;;;;;;5020352;28;20056;-77
2021/12/10 08:32:30;;;;;;;70.32;47.78;;;5.60;1.00;;;;;;5019723;28;20046;-79
2021/12/10 08:34:58;;;;;;;72.35;48.20;;;5.80;99.90;;;;;;5001839;28;20077;-79
2021/12/10 08:37:27;;;;;;;73.70;47.80;;;5.80;1.00;;;;;;5024041;28;20131;-79
2021/12/10 08:39:55;;;;;;;87.07;58.47;;;5.80;19.50;;;;;;5018412;28;20054;-79
2021/12/10 08:42:22;;;;;;;81.43;51.78;;;6.00;1.00;;;;;;5033193;28;20105;-78
2021/12/10 08:44:51;;;;;;;74.93;49.85;;;6.10;1.00;;;;;;5035582;28;20053;-78
2021/12/10 08:47:19;;;;;;;69.55;46.00;;;6.10;1.00;;;;;;5013980;28;20034;-77
2021/12/10 08:49:46;;;;;;;64.82;45.58;;;6.10;1.00;;;;;;5011746;28;20456;-79
2021/12/10 08:52:16;;;;;;;56.55;39.30;;;6.20;1.00;;;;;;5002731;28;20047;-79
2021/12/10 08:54:45;;;;;;;61.75;42.83;;;6.30;1.00;;;;;;5017821;28;20050;-78
2021/12/10 08:57:13;;;;;;;48.25;33.78;;;6.30;1.00;;;;;;5017568;28;20050;-78
2021/12/10 08:59:42;;;;;;;47.28;33.05;;;6.60;1.00;;;;;;5016533;28;20050;-78
2021/12/10 09:02:12;;;;;;;46.72;32.42;;;6.50;99.90;;;;;;5018735;28;20053;-79
2021/12/10 09:04:40;;;;;;;51.13;35.58;;;6.70;99.90;;;;;;5004168;28;20060;-79
2021/12/10 09:07:10;;;;;;;52.83;36.45;;;6.40;99.90;;;;;;5020955;28;20042;-78
2021/12/10 09:09:41;;;;;;;60.03;38.45;;;6.20;1.00;;;;;;5020057;28;20137;-78
2021/12/10 09:12:13;;;;;;;58.03;38.72;;;6.10;1.00;;;;;;5001231;28;20052;-79
2021/12/10 09:14:46;;;;;;;51.67;33.92;;;6.30;1.00;;;;;;5000588;28;20057;-79
2021/12/10 09:17:20;;;;;;;47.97;33.03;;;6.40;1.00;;;;;;5001887;28;20064;-79
2021/12/10 09:19:48;;;;;;;48.53;33.33;;;6.40;1.00;;;;;;5024905;28;20047;-79
2021/12/10 09:22:15;;;;;;;47.53;30.80;;;6.30;1.00;;;;;;5029712;28;20034;-80
2021/12/10 09:24:44;;;;;;;40.80;29.77;;;6.30;1.00;;;;;;5028306;28;20052;-78
2021/12/10 09:27:13;;;;;;;39.40;26.23;;;6.30;1.00;;;;;;5028094;28;20101;-79
2021/12/10 09:29:46;;;;;;;39.00;27.10;;;6.40;1.00;;;;;;5026248;28;20049;-80
2021/12/10 09:32:16;;;;;;;42.63;28.20;;;6.20;1.00;;;;;;5028283;28;20089;-79
2021/12/10 09:34:44;;;;;;;48.85;31.20;;;6.40;1.00;;;;;;5028859;28;20038;-78
2021/12/10 09:37:12;;;;;;;39.38;27.15;;;6.50;1.00;;;;;;5029922;28;20072;-79
2021/12/10 09:39:40;;;;;;;49.38;31.02;;;6.40;1.00;;;;;;5007279;28;20149;-79
2021/12/10 09:42:08;;;;;;;45.88;29.70;;;6.40;1.00;;;;;;5027812;28;20114;-79
2021/12/10 09:44:38;;;;;;;50.08;33.38;;;6.30;1.00;;;;;;5026099;28;20037;-78
2021/12/10 09:47:07;;;;;;;42.53;28.95;;;6.20;1.00;;;;;;5026469;28;20049;-79
2021/12/10 09:49:35;;;;;;;50.38;31.55;;;6.20;1.00;;;;;;5007933;28;20054;-78
2021/12/10 09:52:06;;;;;;;46.38;30.63;;;6.20;1.00;;;;;;5011468;28;20072;-79
2021/12/10 09:54:35;;;;;;;52.33;33.20;;;6.10;1.00;;;;;;5021890;28;20056;-79
2021/12/10 09:57:06;;;;;;;52.05;34.78;;;6.20;1.00;;;;;;5020697;28;20508;-79
2021/12/10 09:59:35;;;;;;;58.92;37.83;;;6.30;1.00;;;;;;5019330;28;20100;-79
2021/12/10 10:02:06;;;;;;;59.50;38.03;;;6.40;1.00;;;;;;5017601;28;20053;-79
2021/12/10 10:04:36;;;;;;;60.35;38.88;;;6.50;1.00;;;;;;5018018;28;20093;-80
2021/12/10 10:07:08;;;;;;;60.15;39.90;;;6.80;1.00;;;;;;5001605;28;20072;-79
2021/12/10 10:09:36;;;;;;;57.22;36.88;;;7.10;1.00;;;;;;5021697;28;20386;-79
2021/12/10 10:12:07;;;;;;;52.60;36.10;;;7.20;1.00;;;;;;5018777;28;20049;-77
2021/12/10 10:14:37;;;;;;;57.15;37.20;;;7.30;99.90;;;;;;5002580;28;20114;-78
2021/12/10 10:17:06;;;;;;;54.10;34.47;;;7.60;99.90;;;;;;5019672;28;20062;-78
2021/12/10 10:19:34;;;;;;;55.55;34.38;;;7.50;99.90;;;;;;5019213;28;20482;-78
2021/12/10 10:22:05;;;;;;;53.95;35.05;;;7.60;99.90;;;;;;5020673;28;20084;-78
2021/12/10 10:24:34;;;;;;;53.15;35.45;;;7.70;99.90;;;;;;5021419;28;20046;-76
2021/12/10 10:27:07;;;;;;;59.35;37.17;;;7.60;99.90;;;;;;5020381;28;20046;-78
2021/12/10 10:29:40;;;;;;;45.45;30.52;;;7.40;99.90;;;;;;5004369;28;20042;-77
2021/12/10 10:32:13;;;;;;;39.53;26.80;;;7.10;99.90;;;;;;5022632;28;20045;-78
2021/12/10 10:34:43;;;;;;;43.53;28.17;;;6.80;99.90;;;;;;5005598;28;20049;-78
2021/12/10 10:37:11;;;;;;;46.78;30.52;;;6.60;99.90;;;;;;5007023;28;20057;-79
2021/12/10 10:39:41;;;;;;;60.72;34.17;;;6.60;1.00;;;;;;5022851;28;20052;-79
2021/12/10 10:42:14;;;;;;;61.42;38.47;;;6.60;1.00;;;;;;5005185;28;20145;-79
2021/12/10 10:44:44;;;;;;;49.50;30.45;;;6.60;1.00;;;;;;5022726;28;20045;-79
2021/12/10 10:47:13;;;;;;;50.42;32.35;;;6.90;1.00;;;;;;5022375;28;20128;-78
2021/12/10 10:49:44;;;;;;;50.30;32.63;;;7.10;1.00;;;;;;5026597;28;20538;-80
2021/12/10 10:52:23;;;;;;;51.13;33.25;;;7.30;99.90;;;;;;5018268;28;20052;-78
2021/12/10 10:54:54;;;;;;;48.22;31.42;;;7.40;99.90;;;;;;5029025;28;20416;-79
2021/12/10 10:57:25;;;;;;;49.60;31.75;;;7.40;99.90;;;;;;5019024;28;20042;-79
2021/12/10 10:59:57;;;;;;;45.55;30.83;;;7.50;99.90;;;;;;5006476;28;20046;-79
2021/12/10 11:02:28;;;;;;;36.35;25.98;;;7.60;99.90;;;;;;5028022;28;20050;-79
2021/12/10 11:05:10;;;;;;;37.97;26.67;;;7.60;99.90;;;;;;5029496;28;20077;-81
2021/12/10 11:07:45;;;;;;;40.95;28.48;;;7.70;99.90;;;;;;5012175;28;20056;-78
2021/12/10 11:10:13;;;;;;;44.40;31.17;;;7.70;99.90;;;;;;5003516;28;20050;-79
2021/12/10 11:12:42;;;;;;;48.63;35.17;;;7.60;99.90;;;;;;5002636;28;20096;-78
2021/12/10 11:15:13;;;;;;;50.60;32.88;;;7.60;99.90;;;;;;5019316;28;20052;-78
2021/12/10 11:17:45;;;;;;;51.47;33.65;;;7.70;99.90;;;;;;5019727;28;20079;-79
2021/12/10 11:20:18;;;;;;;51.95;32.58;;;7.50;99.90;;;;;;5003762;28;20052;-79
2021/12/10 11:22:48;;;;;;;48.25;32.42;;;7.30;99.90;;;;;;5001970;28;20064;-78
2021/12/10 11:25:19;;;;;;;54.58;37.38;;;7.20;99.90;;;;;;5021691;28;20512;-78
2021/12/10 11:27:48;;;;;;;60.65;40.15;;;6.90;99.90;;;;;;5020231;28;20136;-77
2021/12/10 11:30:18;;;;;;;47.17;31.83;;;6.80;99.90;;;;;;5024523;28;20037;-79
2021/12/10 11:32:50;;;;;;;45.70;30.70;;;7.00;1.00;;;;;;5024691;28;20092;-78
2021/12/10 11:35:20;;;;;;;42.40;30.38;;;7.30;99.90;;;;;;5020260;28;20066;-78
2021/12/10 11:37:55;;;;;;;53.45;35.38;;;7.60;99.90;;;;;;5002176;28;20456;-79
2021/12/10 11:40:50;;;;;;;50.92;31.70;;;7.70;99.90;;;;;;5021628;28;20410;-79
2021/12/10 11:43:44;;;;;;;38.90;26.60;;;8.00;99.90;;;;;;5026207;28;20485;-80
2021/12/10 11:49:09;;;;;;;34.88;24.52;;;7.80;99.90;;;;;;5020095;28;20045;-79
2021/12/10 11:51:41;;;;;;;32.92;23.23;;;7.60;99.90;;;;;;5028208;28;20042;-79
2021/12/10 11:54:18;;;;;;;35.05;23.55;;;7.50;99.90;;;;;;5013738;28;20084;-81
2021/12/10 11:56:49;;;;;;;36.28;23.13;;;7.40;99.90;;;;;;5034784;28;20056;-79
2021/12/10 11:59:20;;;;;;;27.58;19.27;;;7.40;99.90;;;;;;5009559;28;20137;-79
2021/12/10 12:01:53;;;;;;;25.13;18.13;;;7.30;99.90;;;;;;5029792;28;20049;-79
2021/12/10 12:04:26;;;;;;;24.05;17.70;;;7.30;99.90;;;;;;5006101;28;20050;-78
2021/12/10 12:07:33;;;;;;;33.17;23.83;;;7.30;99.90;;;;;;5022992;28;20516;-79
2021/12/10 12:10:18;;;;;;;29.57;20.33;;;7.40;99.90;;;;;;5022759;28;20057;-80
2021/12/10 12:12:48;;;;;;;24.97;18.70;;;7.50;99.90;;;;;;5004010;28;20049;-79
2021/12/10 12:15:21;;;;;;;25.67;18.77;;;7.70;99.90;;;;;;5002445;28;20030;-78
2021/12/10 12:17:52;;;;;;;27.00;20.40;;;7.80;99.90;;;;;;5011365;28;20053;-79
2021/12/10 12:20:41;;;;;;;32.10;22.23;;;7.90;99.90;;;;;;5024099;28;20494;-79
2021/12/10 12:26:04;;;;;;;32.00;22.63;;;8.00;99.90;;;;;;5037084;28;20493;-81
2021/12/10 12:28:33;;;;;;;27.77;19.48;;;8.00;99.90;;;;;;5010908;28;20056;-80
2021/12/10 12:31:05;;;;;;;26.77;18.10;;;8.00;99.50;;;;;;5025324;28;20549;-79
2021/12/10 12:33:49;;;;;;;32.45;21.10;;;7.90;92.60;;;;;;5006008;28;20144;-79
2021/12/10 12:36:20;;;;;;;20.13;13.63;;;7.90;99.90;;;;;;5015179;28;20132;-78
2021/12/10 12:38:50;;;;;;;22.23;14.77;;;7.80;84.20;;;;;;5020507;28;20050;-79
2021/12/10 12:41:22;;;;;;;16.00;11.73;;;7.60;48.40;;;;;;5020381;28;20449;-80
2021/12/10 12:44:20;;;;;;;18.77;13.35;;;7.50;89.20;;;;;;5005276;28;20121;-79
2021/12/10 12:47:05;;;;;;;21.45;14.85;;;7.50;90.10;;;;;;4999757;28;20510;-79
2021/12/10 12:49:52;;;;;;;25.38;17.27;;;7.60;99.90;;;;;;5002049;28;20188;-80
2021/12/10 12:52:23;;;;;;;26.92;19.52;;;7.70;99.90;;;;;;5018489;28;20111;-80
2021/12/10 12:55:14;;;;;;;31.42;20.15;;;7.90;99.90;;;;;;5019036;28;20050;-79
2021/12/10 12:57:47;;;;;;;32.00;21.60;;;8.00;99.90;;;;;;5019617;28;20049;-77
2021/12/10 13:00:25;;;;;;;36.95;24.70;;;8.00;99.90;;;;;;5020005;28;20049;-78
2021/12/10 13:02:54;;;;;;;37.30;25.17;;;7.80;99.90;;;;;;5001832;28;20054;-79
2021/12/10 13:05:32;;;;;;;45.42;30.08;;;7.80;99.90;;;;;;5000852;28;20137;-78
2021/12/10 13:08:12;;;;;;;48.30;32.38;;;7.90;99.90;;;;;;5022535;28;20049;-78
2021/12/10 13:10:48;;;;;;;48.15;32.40;;;7.80;99.90;;;;;;5019590;28;20428;-79
2021/12/10 13:13:25;;;;;;;44.90;29.38;;;7.70;99.90;;;;;;5000886;28;20081;-80
2021/12/10 13:15:53;;;;;;;46.55;30.23;;;7.60;99.90;;;;;;5020649;28;20054;-80